Time;durP1;ratioP1;P1;durP2;ratioP2;P2;SDS_P1;SDS_P2;PMS_P1;PMS_P2;Temp;Humidity;BMP_temperature;BMP_pressure;BME280_temperature;BME280_humidity;BME280_pressure;Samples;Min_cycle;Max_cycle;Signal;HPM_P1;HPM_P2
2022/04/21 01:11:36;;;;;;;11.17;5.00;;;;;;;;;;5004543;28;20635;-84
2022/04/21 01:14:03;;;;;;;8.80;5.00;;;;;;;;;;5000044;28;20331;-84
2022/04/21 01:16:37;;;;;;;11.97;5.07;;;;;;;;;;4999117;28;20263;-83
2022/04/21 01:19:04;;;;;;;10.70;4.87;;;;;;;;;;4994343;28;20217;-84
2022/04/21 01:21:38;;;;;;;9.50;5.27;;;;;;;;;;4996161;28;20208;-84
2022/04/21 01:24:11;;;;;;;9.37;4.83;;;;;;;;;;4990050;28;20275;-83
2022/04/21 01:26:39;;;;;;;8.63;4.37;;;;;;;;;;5001402;28;20616;-84
2022/04/21 01:29:06;;;;;;;8.77;4.47;;;;;;;;;;4993013;28;20209;-84
2022/04/21 01:31:33;;;;;;;9.57;5.07;;;;;;;;;;4994641;28;20224;-84
2022/04/21 01:34:05;;;;;;;11.90;4.80;;;;;;;;;;4992819;28;20205;-84
2022/04/21 01:36:33;;;;;;;9.80;4.97;;;;;;;;;;5001294;28;20305;-85
2022/04/21 01:41:55;;;;;;;10.47;5.03;;;;;;;;;;5001106;28;20618;-84
2022/04/21 01:44:22;;;;;;;10.00;4.90;;;;;;;;;;4998502;28;20260;-84
2022/04/21 01:46:49;;;;;;;7.07;4.00;;;;;;;;;;4992717;28;20232;-85
2022/04/21 01:49:23;;;;;;;13.83;4.63;;;;;;;;;;4991581;28;20240;-84
2022/04/21 01:51:52;;;;;;;10.63;4.77;;;;;;;;;;5000354;28;20275;-83
2022/04/21 01:54:28;;;;;;;11.47;5.60;;;;;;;;;;5004110;28;20271;-83
2022/04/21 01:56:57;;;;;;;9.37;4.87;;;;;;;;;;5008203;28;20639;-84
2022/04/21 01:59:26;;;;;;;10.50;5.37;;;;;;;;;;5004201;28;20205;-84
2022/04/21 02:01:57;;;;;;;9.07;4.60;;;;;;;;;;4999798;28;20483;-84
2022/04/21 02:04:29;;;;;;;9.30;5.10;;;;;;;;;;4996962;28;20256;-85
2022/04/21 02:07:02;;;;;;;7.50;4.57;;;;;;;;;;4999626;28;20229;-84
2022/04/21 02:09:34;;;;;;;10.13;4.97;;;;;;;;;;4997478;28;20204;-84
2022/04/21 02:12:07;;;;;;;11.10;4.70;;;;;;;;;;5007003;28;20200;-84
2022/04/21 02:14:35;;;;;;;8.37;4.87;;;;;;;;;;5002553;28;20324;-83
2022/04/21 02:17:09;;;;;;;8.93;4.47;;;;;;;;;;5005070;28;20580;-84
2022/04/21 02:19:36;;;;;;;8.87;4.80;;;;;;;;;;5003061;28;20267;-84
2022/04/21 02:22:07;;;;;;;8.67;5.20;;;;;;;;;;4998603;28;20218;-84
2022/04/21 02:24:44;;;;;;;12.40;5.20;;;;;;;;;;5004475;28;20568;-84
2022/04/21 02:27:11;;;;;;;9.93;4.87;;;;;;;;;;5001589;28;20267;-84
2022/04/21 02:29:42;;;;;;;12.93;5.87;;;;;;;;;;5005462;28;20272;-84
2022/04/21 02:32:15;;;;;;;10.00;5.20;;;;;;;;;;4995713;28;20691;-84
2022/04/21 02:34:49;;;;;;;8.70;5.03;;;;;;;;;;4994972;28;20228;-84
2022/04/21 02:37:16;;;;;;;10.77;4.70;;;;;;;;;;5001070;28;20234;-84
2022/04/21 02:39:52;;;;;;;12.73;5.47;;;;;;;;;;5012702;28;20292;-84
2022/04/21 02:42:22;;;;;;;10.53;4.80;;;;;;;;;;5005935;28;20735;-83
2022/04/21 02:44:50;;;;;;;8.80;5.30;;;;;;;;;;4997585;28;20331;-84
2022/04/21 02:47:20;;;;;;;13.03;4.90;;;;;;;;;;4997421;28;20698;-84
2022/04/21 02:49:48;;;;;;;11.47;5.37;;;;;;;;;;4995862;28;20303;-84
2022/04/21 02:52:16;;;;;;;12.47;5.83;;;;;;;;;;5001055;28;20267;-84
2022/04/21 02:57:33;;;;;;;10.47;5.27;;;;;;;;;;4999748;28;20240;-84
2022/04/21 03:00:04;;;;;;;8.70;5.17;;;;;;;;;;4998792;28;20271;-84
2022/04/21 03:02:31;;;;;;;12.83;5.20;;;;;;;;;;5002888;28;20357;-85
2022/04/21 03:05:01;;;;;;;11.37;5.27;;;;;;;;;;4999759;28;20311;-85
2022/04/21 03:07:34;;;;;;;13.27;5.20;;;;;;;;;;5002513;28;21388;-84
2022/04/21 03:10:02;;;;;;;12.10;5.60;;;;;;;;;;4998032;28;20292;-84
2022/04/21 03:12:35;;;;;;;13.20;5.80;;;;;;;;;;4999538;28;20239;-84
2022/04/21 03:15:23;;;;;;;15.23;5.60;;;;;;;;;;5002528;28;20237;-84
2022/04/21 03:17:52;;;;;;;8.80;5.03;;;;;;;;;;5001009;28;20208;-85
2022/04/21 03:26:01;;;;;;;9.50;5.10;;;;;;;;;;4998569;28;20255;-84
2022/04/21 03:28:28;;;;;;;14.20;5.50;;;;;;;;;;5001963;28;20255;-84
2022/04/21 03:31:02;;;;;;;11.50;6.07;;;;;;;;;;4999078;28;20258;-84
2022/04/21 03:33:31;;;;;;;10.33;5.70;;;;;;;;;;4999881;28;20220;-81
2022/04/21 03:36:02;;;;;;;9.23;5.53;;;;;;;;;;5002831;28;20618;-84
2022/04/21 03:38:37;;;;;;;10.30;5.30;;;;;;;;;;5003094;28;20208;-83
2022/04/21 03:41:06;;;;;;;11.07;5.33;;;;;;;;;;5002523;28;20683;-84
2022/04/21 03:43:35;;;;;;;11.93;5.67;;;;;;;;;;4997034;28;20215;-84
2022/04/21 03:46:05;;;;;;;10.23;5.63;;;;;;;;;;5000229;28;20339;-85
2022/04/21 03:48:32;;;;;;;11.53;5.47;;;;;;;;;;4997520;28;20675;-84
2022/04/21 03:50:59;;;;;;;14.53;5.60;;;;;;;;;;5004716;28;20209;-84
2022/04/21 03:53:27;;;;;;;9.57;5.30;;;;;;;;;;5001017;28;20295;-84
2022/04/21 03:55:55;;;;;;;10.23;5.23;;;;;;;;;;5003967;28;20286;-83
2022/04/21 03:58:31;;;;;;;8.00;4.70;;;;;;;;;;4998320;28;20487;-84
2022/04/21 04:01:00;;;;;;;9.90;5.40;;;;;;;;;;5003624;28;20264;-83
2022/04/21 04:03:29;;;;;;;12.17;5.97;;;;;;;;;;5003590;28;20235;-84
2022/04/21 04:05:59;;;;;;;9.63;5.30;;;;;;;;;;5000901;28;20678;-84
2022/04/21 04:11:11;;;;;;;13.13;5.90;;;;;;;;;;4995534;28;20211;-85
2022/04/21 04:13:40;;;;;;;18.37;5.83;;;;;;;;;;5001972;28;20224;-84
2022/04/21 04:16:10;;;;;;;13.57;5.77;;;;;;;;;;4997352;28;20993;-85
2022/04/21 04:18:37;;;;;;;13.03;5.70;;;;;;;;;;5004136;28;20243;-83
2022/04/21 04:21:08;;;;;;;14.00;5.60;;;;;;;;;;4995276;28;20221;-84
2022/04/21 04:23:37;;;;;;;11.57;5.60;;;;;;;;;;4997239;28;20204;-84
2022/04/21 04:26:06;;;;;;;9.30;5.47;;;;;;;;;;4999803;28;20236;-84
2022/04/21 04:28:34;;;;;;;14.27;5.93;;;;;;;;;;4998634;28;20236;-84
2022/04/21 04:31:02;;;;;;;10.20;5.93;;;;;;;;;;5000568;28;20213;-84
2022/04/21 04:33:32;;;;;;;9.97;5.60;;;;;;;;;;4996195;28;20220;-85
2022/04/21 04:36:05;;;;;;;14.73;6.53;;;;;;;;;;4998962;28;20291;-84
2022/04/21 04:38:38;;;;;;;16.43;5.60;;;;;;;;;;4994830;28;20209;-85
2022/04/21 04:43:53;;;;;;;11.60;5.87;;;;;;;;;;4992355;28;20201;-83
2022/04/21 04:46:37;;;;;;;9.63;5.57;;;;;;;;;;4994933;28;20223;-84
2022/04/21 04:49:10;;;;;;;11.43;5.43;;;;;;;;;;4995635;28;20220;-84
2022/04/21 04:51:41;;;;;;;17.53;5.53;;;;;;;;;;4994950;28;20327;-84
2022/04/21 04:54:08;;;;;;;11.40;6.60;;;;;;;;;;4997826;28;20583;-85
2022/04/21 04:56:35;;;;;;;13.63;6.10;;;;;;;;;;4998526;28;20252;-84
2022/04/21 04:59:03;;;;;;;14.43;5.93;;;;;;;;;;5003326;28;20641;-85
2022/04/21 05:01:33;;;;;;;9.50;5.23;;;;;;;;;;4997078;28;20213;-84
2022/04/21 05:04:04;;;;;;;8.60;4.93;;;;;;;;;;4998360;28;20263;-84
2022/04/21 05:06:35;;;;;;;12.43;5.47;;;;;;;;;;5001031;28;20775;-84
2022/04/21 05:09:09;;;;;;;10.37;4.97;;;;;;;;;;4997760;28;20207;-84
2022/04/21 05:11:37;;;;;;;7.67;4.33;;;;;;;;;;5000634;28;20256;-84
2022/04/21 05:14:09;;;;;;;8.67;5.10;;;;;;;;;;4997454;28;20344;-84
2022/04/21 05:16:41;;;;;;;8.70;5.33;;;;;;;;;;5000857;28;20299;-84
2022/04/21 05:19:12;;;;;;;11.93;5.17;;;;;;;;;;5001517;28;20673;-84
2022/04/21 05:21:42;;;;;;;10.57;5.70;;;;;;;;;;4997724;28;20219;-84
2022/04/21 05:24:19;;;;;;;10.27;5.30;;;;;;;;;;4996709;28;20300;-84
2022/04/21 05:26:49;;;;;;;10.73;4.63;;;;;;;;;;4997985;28;20637;-85
2022/04/21 05:32:04;;;;;;;8.57;5.00;;;;;;;;;;5000947;28;20216;-84
2022/04/21 05:34:33;;;;;;;11.67;4.97;;;;;;;;;;5004099;28;20243;-85
2022/04/21 05:37:06;;;;;;;9.60;4.50;;;;;;;;;;5002987;28;20203;-84
2022/04/21 05:39:36;;;;;;;12.57;4.80;;;;;;;;;;4998043;28;20254;-84
2022/04/21 05:42:09;;;;;;;10.83;4.27;;;;;;;;;;5002428;28;20733;-85
2022/04/21 05:44:39;;;;;;;11.00;4.63;;;;;;;;;;5003404;28;20761;-85
2022/04/21 05:47:11;;;;;;;13.10;3.90;;;;;;;;;;5002251;28;20676;-85
2022/04/21 05:49:41;;;;;;;11.83;4.50;;;;;;;;;;5002866;28;20208;-84
2022/04/21 05:52:10;;;;;;;11.67;4.00;;;;;;;;;;5007687;28;20727;-85
2022/04/21 05:54:37;;;;;;;8.63;4.87;;;;;;;;;;5027862;22;20327;-85
2022/04/21 05:57:05;;;;;;;10.27;4.70;;;;;;;;;;5006898;28;20204;-85
2022/04/21 05:59:34;;;;;;;7.47;4.33;;;;;;;;;;5008717;28;20196;-86
2022/04/21 06:02:01;;;;;;;7.47;3.90;;;;;;;;;;5015243;28;20295;-86
2022/04/21 06:04:30;;;;;;;9.93;3.73;;;;;;;;;;5008357;28;20201;-86
2022/04/21 06:06:59;;;;;;;14.27;3.67;;;;;;;;;;5003589;28;20216;-86
2022/04/21 06:09:26;;;;;;;8.60;3.73;;;;;;;;;;5005711;28;20211;-85
2022/04/21 06:11:54;;;;;;;9.03;3.30;;;;;;;;;;5003897;28;20240;-84
2022/04/21 06:14:21;;;;;;;12.60;3.90;;;;;;;;;;5005817;28;20209;-85
2022/04/21 06:16:48;;;;;;;9.00;3.53;;;;;;;;;;5005604;28;20212;-85
2022/04/21 06:19:15;;;;;;;15.47;3.67;;;;;;;;;;5005105;28;20208;-85
2022/04/21 06:21:44;;;;;;;5.63;3.20;;;;;;;;;;5004813;28;20219;-85
2022/04/21 06:24:11;;;;;;;10.37;3.70;;;;;;;;;;5001707;28;20291;-85
2022/04/21 06:26:42;;;;;;;9.23;3.30;;;;;;;;;;5003580;28;20225;-86
2022/04/21 06:29:10;;;;;;;6.70;3.33;;;;;;;;;;5003971;28;20231;-85
2022/04/21 06:31:38;;;;;;;8.37;3.20;;;;;;;;;;5011457;28;20204;-85
2022/04/21 06:34:05;;;;;;;7.83;3.53;;;;;;;;;;5002435;28;20220;-84
2022/04/21 06:36:33;;;;;;;7.70;3.43;;;;;;;;;;5002793;28;20220;-85
2022/04/21 06:39:03;;;;;;;6.43;3.50;;;;;;;;;;5002905;28;20209;-85
2022/04/21 06:41:30;;;;;;;7.20;3.30;;;;;;;;;;5007196;28;20208;-84
2022/04/21 06:49:27;;;;;;;11.37;3.47;;;;;;;;;;5002746;28;20215;-85
2022/04/21 06:51:55;;;;;;;5.77;3.50;;;;;;;;;;5003022;28;20208;-85
2022/04/21 06:54:23;;;;;;;12.27;4.80;;;;;;;;;;5004130;28;20236;-85
2022/04/21 06:56:50;;;;;;;10.30;4.37;;;;;;;;;;5006698;28;20200;-85
2022/04/21 06:59:18;;;;;;;12.40;3.80;;;;;;;;;;5002764;28;20205;-84
2022/04/21 07:01:46;;;;;;;13.10;4.00;;;;;;;;;;5006940;28;20572;-85
2022/04/21 07:04:14;;;;;;;15.47;4.70;;;;;;;;;;5001765;28;20209;-85
2022/04/21 07:06:41;;;;;;;12.13;4.50;;;;;;;;;;5007831;28;20224;-85
2022/04/21 07:09:08;;;;;;;12.83;4.07;;;;;;;;;;5003929;28;20324;-84
2022/04/21 07:11:38;;;;;;;13.20;3.83;;;;;;;;;;5000425;28;20292;-85
2022/04/21 07:14:05;;;;;;;22.33;4.73;;;;;;;;;;5003564;28;20245;-85
2022/04/21 07:16:32;;;;;;;12.00;4.00;;;;;;;;;;5003800;28;20303;-86
2022/04/21 07:18:59;;;;;;;10.90;4.07;;;;;;;;;;5006047;28;20203;-86
2022/04/21 07:21:29;;;;;;;9.90;3.60;;;;;;;;;;5002628;28;20300;-86
2022/04/21 07:23:56;;;;;;;7.47;3.30;;;;;;;;;;5005236;28;20208;-85
2022/04/21 07:26:23;;;;;;;9.00;3.47;;;;;;;;;;5002228;28;20231;-86
2022/04/21 07:28:52;;;;;;;6.80;3.30;;;;;;;;;;5004877;28;20229;-85
2022/04/21 07:31:19;;;;;;;6.77;3.30;;;;;;;;;;5002848;28;20239;-85
2022/04/21 07:33:46;;;;;;;7.30;3.27;;;;;;;;;;5004622;28;20244;-84
2022/04/21 07:36:13;;;;;;;5.07;2.90;;;;;;;;;;5003909;28;20284;-83
2022/04/21 07:38:41;;;;;;;9.80;3.03;;;;;;;;;;5003244;28;20320;-83
2022/04/21 07:41:10;;;;;;;8.53;3.30;;;;;;;;;;5004310;28;20235;-83
2022/04/21 07:43:42;;;;;;;5.40;3.40;;;;;;;;;;5000345;28;20233;-84
2022/04/21 07:46:11;;;;;;;6.07;3.10;;;;;;;;;;4997748;28;20237;-82
2022/04/21 07:51:23;;;;;;;5.13;2.90;;;;;;;;;;5002861;28;20695;-84
2022/04/21 07:53:49;;;;;;;5.97;3.37;;;;;;;;;;5000316;28;20211;-84
2022/04/21 07:56:18;;;;;;;6.90;3.20;;;;;;;;;;5004170;28;20231;-84
2022/04/21 07:58:47;;;;;;;10.63;3.00;;;;;;;;;;5005527;28;20233;-84
2022/04/21 08:01:16;;;;;;;7.33;3.43;;;;;;;;;;5001686;28;20216;-84
2022/04/21 08:03:43;;;;;;;8.77;3.07;;;;;;;;;;5003087;28;20216;-84
2022/04/21 08:06:11;;;;;;;7.07;3.23;;;;;;;;;;5002123;28;20231;-84
2022/04/21 08:08:40;;;;;;;10.23;3.23;;;;;;;;;;5006324;28;20296;-84
2022/04/21 08:11:07;;;;;;;9.60;3.57;;;;;;;;;;5004986;28;20288;-85
2022/04/21 08:13:35;;;;;;;4.00;2.30;;;;;;;;;;5004815;28;20212;-84
2022/04/21 08:16:02;;;;;;;6.07;3.07;;;;;;;;;;5018730;28;20239;-84
2022/04/21 08:18:33;;;;;;;5.97;3.00;;;;;;;;;;5010435;28;20251;-83
2022/04/21 08:21:00;;;;;;;5.23;2.90;;;;;;;;;;5014222;28;20244;-84
2022/04/21 08:23:27;;;;;;;4.63;3.03;;;;;;;;;;5012756;28;20778;-84
2022/04/21 08:34:22;;;;;;;7.80;2.87;;;;;;;;;;5023121;28;20230;-84
2022/04/21 08:36:49;;;;;;;4.50;2.60;;;;;;;;;;5011427;28;20235;-84
2022/04/21 08:39:16;;;;;;;3.77;2.70;;;;;;;;;;5001711;28;20226;-85
2022/04/21 08:41:48;;;;;;;4.47;2.60;;;;;;;;;;5001829;28;20209;-84
2022/04/21 08:44:18;;;;;;;8.77;3.07;;;;;;;;;;4999556;28;20205;-85
2022/04/21 08:46:46;;;;;;;5.80;2.87;;;;;;;;;;5002704;28;20665;-85
2022/04/21 08:49:15;;;;;;;5.87;2.70;;;;;;;;;;4997147;28;20220;-85
2022/04/21 08:51:44;;;;;;;7.53;2.50;;;;;;;;;;5001466;28;20242;-85
2022/04/21 08:54:11;;;;;;;4.83;2.47;;;;;;;;;;4996876;28;20580;-84
2022/04/21 08:56:39;;;;;;;6.97;2.87;;;;;;;;;;5003629;28;20228;-85
2022/04/21 08:59:06;;;;;;;6.73;3.17;;;;;;;;;;5003260;28;20231;-84
2022/04/21 09:01:33;;;;;;;3.87;2.53;;;;;;;;;;5004781;28;20209;-85
2022/04/21 09:04:01;;;;;;;3.77;2.40;;;;;;;;;;5006769;28;20692;-85
2022/04/21 09:06:29;;;;;;;4.57;2.40;;;;;;;;;;5006793;28;20236;-85
2022/04/21 09:09:11;;;;;;;3.37;2.20;;;;;;;;;;5003766;28;20208;-85
2022/04/21 09:11:42;;;;;;;4.13;2.43;;;;;;;;;;5006285;28;20208;-84
2022/04/21 09:14:15;;;;;;;7.77;2.13;;;;;;;;;;5005671;28;20233;-87
2022/04/21 09:16:42;;;;;;;5.63;2.53;;;;;;;;;;5004594;28;20245;-86
2022/04/21 09:19:09;;;;;;;5.37;2.13;;;;;;;;;;5004956;28;20319;-86
2022/04/21 09:21:37;;;;;;;7.87;2.07;;;;;;;;;;5006337;28;20208;-85
2022/04/21 09:24:19;;;;;;;4.87;2.10;;;;;;;;;;5011659;28;20220;-85
2022/04/21 09:26:47;;;;;;;4.33;2.47;;;;;;;;;;5007360;28;20300;-86
2022/04/21 09:29:23;;;;;;;4.00;2.10;;;;;;;;;;5009157;28;20205;-84
2022/04/21 09:31:53;;;;;;;5.77;2.20;;;;;;;;;;5005127;28;20226;-86
2022/04/21 09:34:21;;;;;;;4.23;2.10;;;;;;;;;;5005962;28;20303;-84
2022/04/21 09:36:48;;;;;;;7.70;2.17;;;;;;;;;;5008171;28;20228;-86
2022/04/21 09:39:16;;;;;;;3.40;2.07;;;;;;;;;;5004331;28;20624;-85
2022/04/21 09:41:45;;;;;;;7.57;2.90;;;;;;;;;;5006784;28;20217;-85
2022/04/21 09:46:59;;;;;;;3.80;1.80;;;;;;;;;;5009138;28;20267;-84
2022/04/21 09:49:36;;;;;;;9.57;2.67;;;;;;;;;;5009745;28;20200;-84
2022/04/21 09:52:04;;;;;;;6.50;2.40;;;;;;;;;;5008032;28;20596;-84
2022/04/21 09:54:31;;;;;;;3.50;1.80;;;;;;;;;;5005067;28;20292;-84
2022/04/21 09:56:59;;;;;;;5.97;2.20;;;;;;;;;;5003404;28;20197;-84
2022/04/21 09:59:27;;;;;;;2.33;1.67;;;;;;;;;;5003341;28;20239;-85
2022/04/21 10:01:55;;;;;;;6.37;2.60;;;;;;;;;;5003226;28;20215;-85
2022/04/21 10:04:22;;;;;;;3.77;2.10;;;;;;;;;;4997698;28;20207;-85
2022/04/21 10:06:49;;;;;;;4.33;2.03;;;;;;;;;;5000808;28;20228;-85
2022/04/21 10:09:17;;;;;;;2.90;1.70;;;;;;;;;;5003517;28;20208;-85
2022/04/21 10:11:44;;;;;;;4.07;2.07;;;;;;;;;;5006043;28;20201;-85
2022/04/21 10:14:12;;;;;;;10.63;6.73;;;;;;;;;;5001798;28;20228;-83
2022/04/21 10:16:42;;;;;;;4.87;2.63;;;;;;;;;;5007138;28;20298;-84
2022/04/21 10:19:10;;;;;;;5.57;2.90;;;;;;;;;;5000761;28;20788;-85
2022/04/21 10:21:39;;;;;;;5.57;2.10;;;;;;;;;;5005829;28;20236;-85
2022/04/21 10:24:07;;;;;;;5.00;2.40;;;;;;;;;;4999023;28;20240;-85
2022/04/21 10:26:37;;;;;;;8.60;2.30;;;;;;;;;;5002912;28;20228;-85
2022/04/21 10:29:12;;;;;;;33.13;18.33;;;;;;;;;;5002400;28;20236;-85
2022/04/21 10:31:47;;;;;;;37.13;18.97;;;;;;;;;;4999255;28;20695;-85
2022/04/21 10:34:28;;;;;;;13.37;6.20;;;;;;;;;;5002600;28;20197;-85
2022/04/21 10:37:05;;;;;;;16.83;10.53;;;;;;;;;;5001869;28;20204;-85
2022/04/21 10:39:34;;;;;;;31.23;21.60;;;;;;;;;;5001922;28;20231;-85
2022/04/21 10:42:07;;;;;;;31.60;17.57;;;;;;;;;;5007849;28;20672;-85
2022/04/21 10:44:42;;;;;;;5.67;1.73;;;;;;;;;;5004185;28;20212;-86
2022/04/21 10:47:29;;;;;;;6.27;1.90;;;;;;;;;;5009542;28;20212;-86
2022/04/21 10:49:57;;;;;;;4.43;2.40;;;;;;;;;;5006008;28;20498;-85
2022/04/21 10:58:23;;;;;;;10.07;3.67;;;;;;;;;;5007977;28;20239;-85
2022/04/21 11:01:07;;;;;;;5.03;2.47;;;;;;;;;;5001821;28;20220;-85
2022/04/21 11:03:36;;;;;;;7.03;2.00;;;;;;;;;;5005811;28;20216;-85
2022/04/21 11:06:07;;;;;;;3.83;2.57;;;;;;;;;;5002975;28;20626;-85
2022/04/21 11:08:35;;;;;;;9.03;3.73;;;;;;;;;;5007787;28;20215;-87
2022/04/21 11:11:02;;;;;;;10.37;4.30;;;;;;;;;;5012452;28;20259;-85
2022/04/21 11:13:41;;;;;;;5.13;2.53;;;;;;;;;;5005222;28;20259;-85
2022/04/21 11:16:08;;;;;;;6.63;3.83;;;;;;;;;;5010942;28;20287;-85
2022/04/21 11:18:39;;;;;;;5.00;2.67;;;;;;;;;;5009216;28;20236;-85
2022/04/21 11:21:23;;;;;;;4.60;3.03;;;;;;;;;;5010724;28;20212;-84
2022/04/21 11:24:03;;;;;;;6.00;2.67;;;;;;;;;;5001880;28;20212;-83
2022/04/21 11:26:30;;;;;;;6.07;4.10;;;;;;;;;;5000003;28;20316;-84
2022/04/21 11:29:02;;;;;;;5.63;2.90;;;;;;;;;;5006059;28;20662;-85
2022/04/21 11:31:29;;;;;;;5.30;2.93;;;;;;;;;;5003925;28;20211;-84
2022/04/21 11:34:02;;;;;;;4.13;2.43;;;;;;;;;;5002394;28;20216;-84
2022/04/21 11:36:36;;;;;;;4.53;2.23;;;;;;;;;;4999602;28;20236;-84
2022/04/21 11:39:07;;;;;;;3.60;2.17;;;;;;;;;;5004438;28;20225;-84
2022/04/21 11:41:34;;;;;;;3.20;2.27;;;;;;;;;;5004766;28;20785;-85
2022/04/21 11:44:02;;;;;;;4.33;2.00;;;;;;;;;;5002814;28;20216;-85
2022/04/21 11:46:29;;;;;;;4.13;2.97;;;;;;;;;;5003068;28;20312;-83
2022/04/21 11:49:01;;;;;;;12.77;3.10;;;;;;;;;;5002697;28;20494;-84
2022/04/21 11:51:29;;;;;;;6.33;3.40;;;;;;;;;;5005197;28;20208;-85
2022/04/21 11:53:57;;;;;;;17.80;10.47;;;;;;;;;;5003265;28;20289;-83
2022/04/21 11:56:24;;;;;;;11.07;5.77;;;;;;;;;;5046678;22;20246;-81
2022/04/21 11:58:51;;;;;;;4.67;2.70;;;;;;;;;;4986592;28;20283;-77
2022/04/21 12:06:51;;;;;;;7.60;4.20;;;;;;;;;;4961440;28;21044;-79
2022/04/21 12:09:19;;;;;;;6.53;2.63;;;;;;;;;;4965652;28;20264;-79
2022/04/21 12:11:48;;;;;;;13.20;5.83;;;;;;;;;;4963521;28;20312;-81
2022/04/21 12:14:16;;;;;;;21.10;9.40;;;;;;;;;;4971076;28;20288;-81
2022/04/21 12:16:45;;;;;;;6.73;3.70;;;;;;;;;;4965211;28;20206;-78
2022/04/21 12:19:16;;;;;;;3.00;2.00;;;;;;;;;;4965349;28;20225;-80
2022/04/21 12:21:44;;;;;;;7.63;1.60;;;;;;;;;;4962106;28;20321;-79
2022/04/21 12:24:16;;;;;;;3.50;2.47;;;;;;;;;;4965193;28;20588;-78
2022/04/21 12:26:50;;;;;;;10.87;4.50;;;;;;;;;;4961886;28;20589;-81
2022/04/21 12:29:18;;;;;;;3.70;1.67;;;;;;;;;;4966547;28;20521;-79
2022/04/21 12:31:48;;;;;;;8.43;4.57;;;;;;;;;;4958065;28;20671;-78
2022/04/21 12:34:20;;;;;;;3.00;2.03;;;;;;;;;;4960234;28;20742;-79
2022/04/21 12:36:52;;;;;;;7.60;2.30;;;;;;;;;;4958259;28;20206;-78
2022/04/21 12:39:21;;;;;;;7.83;2.80;;;;;;;;;;4960339;28;20228;-78
2022/04/21 12:41:48;;;;;;;3.00;2.10;;;;;;;;;;4959771;28;20271;-77
2022/04/21 12:44:18;;;;;;;6.93;2.20;;;;;;;;;;4963051;28;20231;-77
2022/04/21 12:46:57;;;;;;;4.80;2.50;;;;;;;;;;4959482;28;20202;-79
2022/04/21 12:49:24;;;;;;;4.70;2.30;;;;;;;;;;4960398;28;20775;-79
2022/04/21 12:51:51;;;;;;;6.73;2.10;;;;;;;;;;4958033;28;20236;-78
2022/04/21 12:54:27;;;;;;;5.53;2.27;;;;;;;;;;4964125;28;20214;-77
2022/04/21 12:56:55;;;;;;;6.93;1.90;;;;;;;;;;4962707;28;20219;-78
2022/04/21 12:59:23;;;;;;;4.57;2.13;;;;;;;;;;4958724;28;20456;-77
2022/04/21 13:01:50;;;;;;;3.93;2.20;;;;;;;;;;4956240;28;20325;-78
2022/04/21 13:04:17;;;;;;;5.00;2.07;;;;;;;;;;4960545;28;20646;-78
2022/04/21 13:06:44;;;;;;;2.73;1.90;;;;;;;;;;4955510;28;20216;-77
2022/04/21 13:09:11;;;;;;;5.60;2.20;;;;;;;;;;4960484;28;20228;-77
2022/04/21 13:11:40;;;;;;;4.27;2.30;;;;;;;;;;4961796;28;20229;-79
2022/04/21 13:14:07;;;;;;;4.03;2.40;;;;;;;;;;4962731;28;20221;-78
2022/04/21 13:16:34;;;;;;;7.73;2.47;;;;;;;;;;4960423;28;20201;-79
2022/04/21 13:19:01;;;;;;;4.30;2.13;;;;;;;;;;4956592;28;20314;-79
2022/04/21 13:24:13;;;;;;;6.00;2.03;;;;;;;;;;4960421;28;20201;-80
2022/04/21 13:26:42;;;;;;;4.27;2.00;;;;;;;;;;4956702;28;20549;-80
2022/04/21 13:29:09;;;;;;;3.20;2.50;;;;;;;;;;4957086;28;20206;-79
2022/04/21 13:34:21;;;;;;;4.77;2.20;;;;;;;;;;4951053;28;20229;-78
2022/04/21 13:36:48;;;;;;;4.90;2.13;;;;;;;;;;4950269;28;20216;-77
2022/04/21 13:39:17;;;;;;;4.40;2.30;;;;;;;;;;4956571;28;20292;-78
2022/04/21 13:41:46;;;;;;;3.43;2.13;;;;;;;;;;4955131;28;20244;-78
2022/04/21 13:44:14;;;;;;;3.40;2.10;;;;;;;;;;4954120;28;20218;-77
2022/04/21 13:46:42;;;;;;;3.63;2.40;;;;;;;;;;4954464;28;20865;-77
2022/04/21 13:49:09;;;;;;;3.47;2.20;;;;;;;;;;4959972;28;20667;-79
2022/04/21 13:51:36;;;;;;;4.67;2.30;;;;;;;;;;4965126;28;20218;-79
2022/04/21 13:54:03;;;;;;;5.13;2.50;;;;;;;;;;4963552;28;20265;-79
2022/04/21 13:56:31;;;;;;;5.80;2.70;;;;;;;;;;4964790;28;20216;-79
2022/04/21 13:58:59;;;;;;;7.40;3.57;;;;;;;;;;4963274;28;20281;-78
2022/04/21 14:01:28;;;;;;;10.17;5.30;;;;;;;;;;4963028;28;20635;-78
2022/04/21 14:03:55;;;;;;;4.93;2.37;;;;;;;;;;4959394;28;20213;-78
2022/04/21 14:06:22;;;;;;;6.10;2.80;;;;;;;;;;4969837;28;20212;-79
2022/04/21 14:08:49;;;;;;;4.23;2.60;;;;;;;;;;4966475;28;20244;-80
2022/04/21 14:11:17;;;;;;;6.73;2.70;;;;;;;;;;4962506;28;20612;-80
2022/04/21 14:13:44;;;;;;;3.80;2.50;;;;;;;;;;4965638;28;20206;-79
2022/04/21 14:16:13;;;;;;;6.63;2.50;;;;;;;;;;4964856;28;20672;-79
2022/04/21 14:18:40;;;;;;;9.50;3.20;;;;;;;;;;4960265;28;20210;-79
2022/04/21 14:21:08;;;;;;;4.77;3.23;;;;;;;;;;4962141;28;20222;-79
2022/04/21 14:23:36;;;;;;;6.17;2.83;;;;;;;;;;4970062;28;20260;-79
2022/04/21 14:26:06;;;;;;;6.93;3.47;;;;;;;;;;4963114;28;20202;-80
2022/04/21 14:28:35;;;;;;;5.67;3.27;;;;;;;;;;4962799;28;20210;-78
2022/04/21 14:31:02;;;;;;;6.03;3.83;;;;;;;;;;4961376;28;20226;-80
2022/04/21 14:33:31;;;;;;;6.00;3.87;;;;;;;;;;4967343;28;20213;-79
2022/04/21 14:35:58;;;;;;;5.73;3.43;;;;;;;;;;4965355;28;20241;-79
2022/04/21 14:44:07;;;;;;;7.77;4.23;;;;;;;;;;4908971;29;20207;-79
2022/04/21 14:46:35;;;;;;;6.73;3.87;;;;;;;;;;4951145;28;20206;-79
2022/04/21 14:49:04;;;;;;;6.57;3.40;;;;;;;;;;4957135;28;20203;-78
2022/04/21 14:51:31;;;;;;;5.90;3.67;;;;;;;;;;4954634;28;20226;-78
2022/04/21 14:53:59;;;;;;;5.87;3.63;;;;;;;;;;4960215;28;20319;-78
2022/04/21 14:56:26;;;;;;;7.83;3.30;;;;;;;;;;4954280;28;20218;-77
2022/04/21 14:58:53;;;;;;;4.53;3.37;;;;;;;;;;4952801;28;20210;-77
2022/04/21 15:01:21;;;;;;;9.77;3.40;;;;;;;;;;4953972;28;20224;-78
2022/04/21 15:03:48;;;;;;;6.00;3.40;;;;;;;;;;4956107;28;20214;-77
2022/04/21 15:06:17;;;;;;;9.73;3.40;;;;;;;;;;4964399;28;20625;-77
2022/04/21 15:08:44;;;;;;;7.07;3.30;;;;;;;;;;4966692;28;20213;-77
2022/04/21 15:11:12;;;;;;;8.93;3.20;;;;;;;;;;4958147;28;20240;-77
2022/04/21 15:13:39;;;;;;;7.90;3.50;;;;;;;;;;4961881;28;20214;-78
2022/04/21 15:16:06;;;;;;;6.60;3.57;;;;;;;;;;4955735;28;20202;-77
2022/04/21 15:18:34;;;;;;;4.17;2.87;;;;;;;;;;4963076;28;20296;-79
2022/04/21 15:21:02;;;;;;;5.87;3.20;;;;;;;;;;4960455;28;20868;-78
2022/04/21 15:23:30;;;;;;;6.93;3.50;;;;;;;;;;4958807;28;20245;-78
2022/04/21 15:25:58;;;;;;;6.93;3.20;;;;;;;;;;4958070;28;20203;-78
2022/04/21 15:28:25;;;;;;;5.30;2.70;;;;;;;;;;4959589;28;20206;-78
2022/04/21 15:30:52;;;;;;;5.43;2.40;;;;;;;;;;4961899;28;20241;-77
2022/04/21 15:33:19;;;;;;;4.97;2.90;;;;;;;;;;4958370;28;20285;-78
2022/04/21 15:35:47;;;;;;;3.87;2.20;;;;;;;;;;4964767;28;20216;-77
2022/04/21 15:38:15;;;;;;;9.53;2.43;;;;;;;;;;4961417;28;20206;-77
2022/04/21 15:40:44;;;;;;;3.90;2.20;;;;;;;;;;4957125;28;20783;-78
2022/04/21 15:43:11;;;;;;;3.30;2.07;;;;;;;;;;4956132;28;20214;-77
2022/04/21 15:45:38;;;;;;;5.40;2.93;;;;;;;;;;4957663;28;20265;-77
2022/04/21 15:48:06;;;;;;;5.60;2.20;;;;;;;;;;4954977;28;20217;-77
2022/04/21 15:50:34;;;;;;;4.97;2.30;;;;;;;;;;4956419;28;20258;-77
2022/04/21 15:58:48;;;;;;;3.83;2.03;;;;;;;;;;4961316;28;20203;-77
2022/04/21 15:58:55;;;;;;;3.97;2.30;;;;;;;;;;4959369;28;20596;-78
2022/04/21 16:01:24;;;;;;;5.23;2.00;;;;;;;;;;4955047;28;20222;-78
2022/04/21 16:03:51;;;;;;;5.30;2.53;;;;;;;;;;4960209;28;20390;-78
2022/04/21 16:06:20;;;;;;;3.80;2.37;;;;;;;;;;4956531;28;20305;-79
2022/04/21 16:08:48;;;;;;;5.03;2.37;;;;;;;;;;4959538;28;20759;-78
2022/04/21 16:11:17;;;;;;;7.87;2.43;;;;;;;;;;4957369;28;20237;-77
2022/04/21 16:13:45;;;;;;;6.13;2.77;;;;;;;;;;4954351;28;20205;-78
2022/04/21 16:16:12;;;;;;;7.03;2.53;;;;;;;;;;4959811;28;21028;-78
2022/04/21 16:18:39;;;;;;;5.93;3.10;;;;;;;;;;4950824;28;20218;-78
2022/04/21 16:21:07;;;;;;;6.70;2.53;;;;;;;;;;4950175;28;20321;-78
2022/04/21 16:23:36;;;;;;;4.33;2.50;;;;;;;;;;4956311;28;20288;-78
2022/04/21 16:26:03;;;;;;;4.57;2.80;;;;;;;;;;4956172;28;20578;-78
2022/04/21 16:28:31;;;;;;;4.80;2.57;;;;;;;;;;4954390;28;20742;-77
2022/04/21 16:31:02;;;;;;;7.30;2.60;;;;;;;;;;4946483;28;20241;-78
2022/04/21 16:33:29;;;;;;;7.43;2.80;;;;;;;;;;4956281;28;20236;-77
2022/04/21 16:35:56;;;;;;;5.90;2.90;;;;;;;;;;4947921;28;20202;-77
2022/04/21 16:38:24;;;;;;;4.20;2.50;;;;;;;;;;4946306;28;20220;-77
2022/04/21 16:40:51;;;;;;;7.90;3.10;;;;;;;;;;4947339;28;21018;-77
2022/04/21 16:43:18;;;;;;;6.10;2.83;;;;;;;;;;4943562;28;20743;-77
2022/04/21 16:45:46;;;;;;;6.00;2.80;;;;;;;;;;4947539;28;20656;-79
2022/04/21 16:48:14;;;;;;;5.10;2.90;;;;;;;;;;4944217;28;20581;-77
2022/04/21 16:50:41;;;;;;;9.33;3.73;;;;;;;;;;4952474;28;20253;-77
2022/04/21 16:53:10;;;;;;;4.97;3.20;;;;;;;;;;4954915;28;20874;-77
2022/04/21 16:55:37;;;;;;;6.50;3.30;;;;;;;;;;4953628;28;20304;-77
2022/04/21 16:58:04;;;;;;;5.63;3.37;;;;;;;;;;4955487;28;20595;-77
2022/04/21 17:03:18;;;;;;;6.43;3.67;;;;;;;;;;4952688;28;20220;-76
2022/04/21 17:05:45;;;;;;;7.37;3.53;;;;;;;;;;4951139;28;20737;-76
2022/04/21 17:08:12;;;;;;;7.17;3.80;;;;;;;;;;4948825;28;20723;-77